sensor_id;sensor_type;location;lat;lon;timestamp;P1;durP1;ratioP1;P2;durP2;ratioP2
47335;SDS011;33068;51.990;5.926;2023-08-20T00:01:43;15.05;;;6.85;;
47335;SDS011;33068;51.990;5.926;2023-08-20T00:04:10;16.98;;;6.38;;
47335;SDS011;33068;51.990;5.926;2023-08-20T00:06:39;12.00;;;4.85;;
47335;SDS011;33068;51.990;5.926;2023-08-20T00:09:08;11.07;;;6.20;;
47335;SDS011;33068;51.990;5.926;2023-08-20T00:11:34;11.90;;;5.45;;
47335;SDS011;33068;51.990;5.926;2023-08-20T00:14:02;12.95;;;5.60;;
47335;SDS011;33068;51.990;5.926;2023-08-20T00:16:29;11.93;;;6.43;;
47335;SDS011;33068;51.990;5.926;2023-08-20T00:18:55;13.40;;;6.53;;
47335;SDS011;33068;51.990;5.926;2023-08-20T00:21:22;11.40;;;6.35;;
47335;SDS011;33068;51.990;5.926;2023-08-20T00:23:50;19.90;;;6.40;;
47335;SDS011;33068;51.990;5.926;2023-08-20T00:26:17;16.38;;;5.97;;
47335;SDS011;33068;51.990;5.926;2023-08-20T00:28:43;11.98;;;5.97;;
47335;SDS011;33068;51.990;5.926;2023-08-20T00:31:10;14.10;;;6.57;;
47335;SDS011;33068;51.990;5.926;2023-08-20T00:33:36;9.05;;;5.95;;
47335;SDS011;33068;51.990;5.926;2023-08-20T00:36:04;13.57;;;7.15;;
47335;SDS011;33068;51.990;5.926;2023-08-20T00:38:31;11.40;;;5.72;;
47335;SDS011;33068;51.990;5.926;2023-08-20T00:40:58;13.18;;;6.15;;
47335;SDS011;33068;51.990;5.926;2023-08-20T00:43:24;13.07;;;7.15;;
47335;SDS011;33068;51.990;5.926;2023-08-20T00:45:50;15.98;;;6.82;;
47335;SDS011;33068;51.990;5.926;2023-08-20T00:48:17;12.13;;;6.45;;
47335;SDS011;33068;51.990;5.926;2023-08-20T00:50:44;14.88;;;6.63;;
47335;SDS011;33068;51.990;5.926;2023-08-20T00:53:11;9.73;;;7.20;;
47335;SDS011;33068;51.990;5.926;2023-08-20T00:55:39;17.83;;;7.10;;
47335;SDS011;33068;51.990;5.926;2023-08-20T00:58:07;16.73;;;7.80;;
47335;SDS011;33068;51.990;5.926;2023-08-20T01:00:33;14.10;;;6.90;;
47335;SDS011;33068;51.990;5.926;2023-08-20T01:08:37;11.90;;;6.80;;
47335;SDS011;33068;51.990;5.926;2023-08-20T01:11:06;11.70;;;6.50;;
47335;SDS011;33068;51.990;5.926;2023-08-20T01:13:39;13.43;;;6.20;;
47335;SDS011;33068;51.990;5.926;2023-08-20T01:16:05;13.15;;;7.07;;
47335;SDS011;33068;51.990;5.926;2023-08-20T01:18:31;16.98;;;6.80;;
47335;SDS011;33068;51.990;5.926;2023-08-20T01:20:59;15.15;;;7.43;;
47335;SDS011;33068;51.990;5.926;2023-08-20T01:23:40;14.50;;;6.45;;
47335;SDS011;33068;51.990;5.926;2023-08-20T01:26:40;13.60;;;7.47;;
47335;SDS011;33068;51.990;5.926;2023-08-20T01:29:20;11.55;;;6.47;;
47335;SDS011;33068;51.990;5.926;2023-08-20T01:31:47;16.20;;;7.55;;
47335;SDS011;33068;51.990;5.926;2023-08-20T01:34:14;16.27;;;9.05;;
47335;SDS011;33068;51.990;5.926;2023-08-20T01:36:40;19.52;;;9.85;;
47335;SDS011;33068;51.990;5.926;2023-08-20T01:39:09;11.88;;;7.55;;
47335;SDS011;33068;51.990;5.926;2023-08-20T01:41:36;17.83;;;9.13;;
47335;SDS011;33068;51.990;5.926;2023-08-20T01:44:02;14.43;;;8.07;;
47335;SDS011;33068;51.990;5.926;2023-08-20T01:46:32;21.17;;;8.73;;
47335;SDS011;33068;51.990;5.926;2023-08-20T01:48:58;16.20;;;7.53;;
47335;SDS011;33068;51.990;5.926;2023-08-20T01:51:25;15.00;;;8.32;;
47335;SDS011;33068;51.990;5.926;2023-08-20T01:53:51;13.80;;;9.10;;
47335;SDS011;33068;51.990;5.926;2023-08-20T01:56:17;13.43;;;8.18;;
47335;SDS011;33068;51.990;5.926;2023-08-20T01:58:44;8.98;;;7.38;;
47335;SDS011;33068;51.990;5.926;2023-08-20T02:01:10;18.85;;;9.07;;
47335;SDS011;33068;51.990;5.926;2023-08-20T02:03:38;19.13;;;9.73;;
47335;SDS011;33068;51.990;5.926;2023-08-20T02:06:05;13.27;;;7.65;;
47335;SDS011;33068;51.990;5.926;2023-08-20T02:08:31;16.63;;;9.82;;
47335;SDS011;33068;51.990;5.926;2023-08-20T02:11:00;16.42;;;8.70;;
47335;SDS011;33068;51.990;5.926;2023-08-20T02:13:27;15.10;;;9.15;;
47335;SDS011;33068;51.990;5.926;2023-08-20T02:15:57;17.20;;;9.43;;
47335;SDS011;33068;51.990;5.926;2023-08-20T02:18:26;17.90;;;11.05;;
47335;SDS011;33068;51.990;5.926;2023-08-20T02:20:54;16.10;;;9.80;;
47335;SDS011;33068;51.990;5.926;2023-08-20T02:23:20;14.10;;;8.95;;
47335;SDS011;33068;51.990;5.926;2023-08-20T02:25:47;18.20;;;10.95;;
47335;SDS011;33068;51.990;5.926;2023-08-20T02:28:14;18.88;;;10.13;;
47335;SDS011;33068;51.990;5.926;2023-08-20T02:30:40;17.00;;;10.50;;
47335;SDS011;33068;51.990;5.926;2023-08-20T02:33:07;15.73;;;10.10;;
47335;SDS011;33068;51.990;5.926;2023-08-20T02:35:35;15.35;;;10.25;;
47335;SDS011;33068;51.990;5.926;2023-08-20T02:38:02;17.15;;;9.98;;
47335;SDS011;33068;51.990;5.926;2023-08-20T02:40:28;15.10;;;11.27;;
47335;SDS011;33068;51.990;5.926;2023-08-20T02:42:55;15.68;;;9.65;;
47335;SDS011;33068;51.990;5.926;2023-08-20T02:45:22;20.60;;;12.10;;
47335;SDS011;33068;51.990;5.926;2023-08-20T02:47:50;16.55;;;11.30;;
47335;SDS011;33068;51.990;5.926;2023-08-20T02:50:17;20.63;;;11.68;;
47335;SDS011;33068;51.990;5.926;2023-08-20T02:52:44;23.73;;;13.27;;
47335;SDS011;33068;51.990;5.926;2023-08-20T02:55:11;17.80;;;11.07;;
47335;SDS011;33068;51.990;5.926;2023-08-20T02:57:38;26.65;;;15.30;;
47335;SDS011;33068;51.990;5.926;2023-08-20T03:00:05;26.60;;;14.73;;
47335;SDS011;33068;51.990;5.926;2023-08-20T03:02:36;19.90;;;12.35;;
47335;SDS011;33068;51.990;5.926;2023-08-20T03:05:03;22.10;;;13.15;;
47335;SDS011;33068;51.990;5.926;2023-08-20T03:07:32;19.90;;;14.18;;
47335;SDS011;33068;51.990;5.926;2023-08-20T03:09:58;24.35;;;14.73;;
47335;SDS011;33068;51.990;5.926;2023-08-20T03:12:25;23.55;;;13.75;;
47335;SDS011;33068;51.990;5.926;2023-08-20T03:14:52;17.52;;;10.20;;
47335;SDS011;33068;51.990;5.926;2023-08-20T03:17:18;25.73;;;15.88;;
47335;SDS011;33068;51.990;5.926;2023-08-20T03:19:53;15.35;;;12.40;;
47335;SDS011;33068;51.990;5.926;2023-08-20T03:22:20;26.00;;;16.63;;
47335;SDS011;33068;51.990;5.926;2023-08-20T03:24:47;24.00;;;15.82;;
47335;SDS011;33068;51.990;5.926;2023-08-20T03:27:13;22.35;;;14.43;;
47335;SDS011;33068;51.990;5.926;2023-08-20T03:29:40;30.05;;;15.50;;
47335;SDS011;33068;51.990;5.926;2023-08-20T03:32:07;21.77;;;13.45;;
47335;SDS011;33068;51.990;5.926;2023-08-20T03:34:33;22.30;;;14.07;;
47335;SDS011;33068;51.990;5.926;2023-08-20T03:37:00;24.33;;;14.30;;
47335;SDS011;33068;51.990;5.926;2023-08-20T03:39:26;23.27;;;15.00;;
47335;SDS011;33068;51.990;5.926;2023-08-20T03:41:52;22.45;;;14.20;;
47335;SDS011;33068;51.990;5.926;2023-08-20T03:44:19;20.55;;;13.77;;
47335;SDS011;33068;51.990;5.926;2023-08-20T03:46:46;23.27;;;12.63;;
47335;SDS011;33068;51.990;5.926;2023-08-20T03:49:13;25.88;;;16.42;;
47335;SDS011;33068;51.990;5.926;2023-08-20T03:51:39;18.85;;;13.85;;
47335;SDS011;33068;51.990;5.926;2023-08-20T03:54:07;19.77;;;12.75;;
47335;SDS011;33068;51.990;5.926;2023-08-20T03:56:34;19.77;;;12.07;;
47335;SDS011;33068;51.990;5.926;2023-08-20T03:59:00;24.73;;;14.40;;
47335;SDS011;33068;51.990;5.926;2023-08-20T04:01:29;24.70;;;14.73;;
47335;SDS011;33068;51.990;5.926;2023-08-20T04:03:56;21.88;;;15.23;;
47335;SDS011;33068;51.990;5.926;2023-08-20T04:06:22;22.35;;;14.80;;
47335;SDS011;33068;51.990;5.926;2023-08-20T04:08:49;20.92;;;15.65;;
47335;SDS011;33068;51.990;5.926;2023-08-20T04:11:17;29.77;;;16.65;;
47335;SDS011;33068;51.990;5.926;2023-08-20T04:13:43;28.83;;;18.08;;
47335;SDS011;33068;51.990;5.926;2023-08-20T04:16:10;24.73;;;15.68;;
47335;SDS011;33068;51.990;5.926;2023-08-20T04:18:37;26.63;;;16.80;;
47335;SDS011;33068;51.990;5.926;2023-08-20T04:21:05;30.48;;;19.35;;
47335;SDS011;33068;51.990;5.926;2023-08-20T04:23:33;24.35;;;16.75;;
47335;SDS011;33068;51.990;5.926;2023-08-20T04:25:59;23.77;;;17.20;;
47335;SDS011;33068;51.990;5.926;2023-08-20T04:28:26;27.73;;;17.40;;
47335;SDS011;33068;51.990;5.926;2023-08-20T04:30:52;25.65;;;18.15;;
47335;SDS011;33068;51.990;5.926;2023-08-20T04:33:19;36.55;;;20.80;;
47335;SDS011;33068;51.990;5.926;2023-08-20T04:35:46;26.88;;;18.33;;
47335;SDS011;33068;51.990;5.926;2023-08-20T04:38:16;26.55;;;16.23;;
47335;SDS011;33068;51.990;5.926;2023-08-20T04:40:45;28.00;;;18.50;;
47335;SDS011;33068;51.990;5.926;2023-08-20T04:43:12;21.80;;;14.93;;
47335;SDS011;33068;51.990;5.926;2023-08-20T04:45:38;28.15;;;17.00;;
47335;SDS011;33068;51.990;5.926;2023-08-20T04:48:06;28.70;;;17.33;;
47335;SDS011;33068;51.990;5.926;2023-08-20T04:50:32;23.80;;;16.63;;
47335;SDS011;33068;51.990;5.926;2023-08-20T04:52:58;28.40;;;19.10;;
47335;SDS011;33068;51.990;5.926;2023-08-20T04:55:26;27.30;;;17.80;;
47335;SDS011;33068;51.990;5.926;2023-08-20T04:57:53;33.05;;;20.15;;
47335;SDS011;33068;51.990;5.926;2023-08-20T05:00:19;27.13;;;19.10;;
47335;SDS011;33068;51.990;5.926;2023-08-20T05:02:52;30.50;;;20.10;;
47335;SDS011;33068;51.990;5.926;2023-08-20T05:05:21;22.85;;;16.65;;
47335;SDS011;33068;51.990;5.926;2023-08-20T05:07:49;24.00;;;16.77;;
47335;SDS011;33068;51.990;5.926;2023-08-20T05:10:15;28.60;;;18.30;;
47335;SDS011;33068;51.990;5.926;2023-08-20T05:12:42;24.50;;;16.92;;
47335;SDS011;33068;51.990;5.926;2023-08-20T05:15:09;25.15;;;18.08;;
47335;SDS011;33068;51.990;5.926;2023-08-20T05:17:36;30.35;;;17.02;;
47335;SDS011;33068;51.990;5.926;2023-08-20T05:20:03;25.17;;;15.70;;
47335;SDS011;33068;51.990;5.926;2023-08-20T05:22:30;26.33;;;17.23;;
47335;SDS011;33068;51.990;5.926;2023-08-20T05:24:57;24.42;;;17.15;;
47335;SDS011;33068;51.990;5.926;2023-08-20T05:27:23;24.40;;;14.73;;
47335;SDS011;33068;51.990;5.926;2023-08-20T05:29:51;26.15;;;16.23;;
47335;SDS011;33068;51.990;5.926;2023-08-20T05:32:19;25.33;;;15.50;;
47335;SDS011;33068;51.990;5.926;2023-08-20T05:34:45;30.50;;;15.25;;
47335;SDS011;33068;51.990;5.926;2023-08-20T05:37:12;28.30;;;14.95;;
47335;SDS011;33068;51.990;5.926;2023-08-20T05:39:39;22.48;;;13.50;;
47335;SDS011;33068;51.990;5.926;2023-08-20T05:42:07;18.02;;;12.27;;
47335;SDS011;33068;51.990;5.926;2023-08-20T05:44:33;30.17;;;12.45;;
47335;SDS011;33068;51.990;5.926;2023-08-20T05:47:02;17.25;;;11.52;;
47335;SDS011;33068;51.990;5.926;2023-08-20T05:49:31;22.38;;;13.15;;
47335;SDS011;33068;51.990;5.926;2023-08-20T05:51:57;19.60;;;12.07;;
47335;SDS011;33068;51.990;5.926;2023-08-20T05:54:24;18.95;;;10.95;;
47335;SDS011;33068;51.990;5.926;2023-08-20T05:56:53;19.33;;;10.35;;
47335;SDS011;33068;51.990;5.926;2023-08-20T05:59:19;18.63;;;10.95;;
47335;SDS011;33068;51.990;5.926;2023-08-20T06:01:46;17.38;;;9.32;;
47335;SDS011;33068;51.990;5.926;2023-08-20T06:04:13;18.20;;;9.05;;
47335;SDS011;33068;51.990;5.926;2023-08-20T06:06:39;16.52;;;8.55;;
47335;SDS011;33068;51.990;5.926;2023-08-20T06:09:05;16.92;;;7.85;;
47335;SDS011;33068;51.990;5.926;2023-08-20T06:11:32;15.30;;;7.88;;
47335;SDS011;33068;51.990;5.926;2023-08-20T06:13:58;13.23;;;7.15;;
47335;SDS011;33068;51.990;5.926;2023-08-20T06:16:24;11.93;;;6.65;;
47335;SDS011;33068;51.990;5.926;2023-08-20T06:18:51;12.00;;;7.07;;
47335;SDS011;33068;51.990;5.926;2023-08-20T06:21:18;16.63;;;7.80;;
47335;SDS011;33068;51.990;5.926;2023-08-20T06:23:44;13.82;;;6.88;;
47335;SDS011;33068;51.990;5.926;2023-08-20T06:26:10;12.82;;;6.13;;
47335;SDS011;33068;51.990;5.926;2023-08-20T06:28:37;14.32;;;6.38;;
47335;SDS011;33068;51.990;5.926;2023-08-20T06:31:03;11.57;;;6.07;;
47335;SDS011;33068;51.990;5.926;2023-08-20T06:33:30;15.05;;;6.10;;
47335;SDS011;33068;51.990;5.926;2023-08-20T06:35:56;16.15;;;5.80;;
47335;SDS011;33068;51.990;5.926;2023-08-20T06:38:23;9.25;;;4.90;;
47335;SDS011;33068;51.990;5.926;2023-08-20T06:40:50;11.88;;;5.10;;
47335;SDS011;33068;51.990;5.926;2023-08-20T06:43:16;15.15;;;5.65;;
47335;SDS011;33068;51.990;5.926;2023-08-20T06:45:43;17.90;;;6.75;;
47335;SDS011;33068;51.990;5.926;2023-08-20T06:48:09;10.82;;;5.38;;
47335;SDS011;33068;51.990;5.926;2023-08-20T06:50:35;12.88;;;5.82;;
47335;SDS011;33068;51.990;5.926;2023-08-20T06:53:02;11.75;;;4.45;;
47335;SDS011;33068;51.990;5.926;2023-08-20T06:55:29;12.05;;;5.30;;
47335;SDS011;33068;51.990;5.926;2023-08-20T06:57:55;10.73;;;5.10;;
47335;SDS011;33068;51.990;5.926;2023-08-20T07:00:21;13.23;;;5.57;;
47335;SDS011;33068;51.990;5.926;2023-08-20T07:02:48;11.60;;;4.90;;
47335;SDS011;33068;51.990;5.926;2023-08-20T07:05:14;10.48;;;4.40;;
47335;SDS011;33068;51.990;5.926;2023-08-20T07:07:41;6.70;;;3.55;;
47335;SDS011;33068;51.990;5.926;2023-08-20T07:10:07;11.90;;;3.72;;
47335;SDS011;33068;51.990;5.926;2023-08-20T07:12:34;12.50;;;2.92;;
47335;SDS011;33068;51.990;5.926;2023-08-20T07:15:01;8.80;;;2.85;;
47335;SDS011;33068;51.990;5.926;2023-08-20T07:17:29;10.52;;;3.63;;
47335;SDS011;33068;51.990;5.926;2023-08-20T07:19:55;8.75;;;3.30;;
47335;SDS011;33068;51.990;5.926;2023-08-20T07:22:21;6.53;;;3.10;;
47335;SDS011;33068;51.990;5.926;2023-08-20T07:24:48;10.30;;;3.17;;
47335;SDS011;33068;51.990;5.926;2023-08-20T07:27:14;14.23;;;3.95;;
47335;SDS011;33068;51.990;5.926;2023-08-20T07:29:41;9.07;;;3.75;;
47335;SDS011;33068;51.990;5.926;2023-08-20T07:32:07;8.68;;;2.83;;
47335;SDS011;33068;51.990;5.926;2023-08-20T07:34:34;7.10;;;2.88;;
47335;SDS011;33068;51.990;5.926;2023-08-20T07:37:00;7.13;;;2.60;;
47335;SDS011;33068;51.990;5.926;2023-08-20T07:39:28;11.70;;;3.55;;
47335;SDS011;33068;51.990;5.926;2023-08-20T07:41:54;9.93;;;3.35;;
47335;SDS011;33068;51.990;5.926;2023-08-20T07:44:20;8.98;;;1.98;;
47335;SDS011;33068;51.990;5.926;2023-08-20T07:46:47;8.60;;;1.45;;
47335;SDS011;33068;51.990;5.926;2023-08-20T07:49:14;7.32;;;1.65;;
47335;SDS011;33068;51.990;5.926;2023-08-20T07:51:40;9.20;;;2.30;;
47335;SDS011;33068;51.990;5.926;2023-08-20T07:54:06;7.93;;;2.08;;
47335;SDS011;33068;51.990;5.926;2023-08-20T07:56:32;8.65;;;1.92;;
47335;SDS011;33068;51.990;5.926;2023-08-20T07:58:59;7.40;;;1.75;;
47335;SDS011;33068;51.990;5.926;2023-08-20T08:01:25;7.07;;;1.48;;
47335;SDS011;33068;51.990;5.926;2023-08-20T08:03:52;6.70;;;0.98;;
47335;SDS011;33068;51.990;5.926;2023-08-20T08:06:20;6.07;;;1.08;;
47335;SDS011;33068;51.990;5.926;2023-08-20T08:08:49;5.22;;;1.00;;
47335;SDS011;33068;51.990;5.926;2023-08-20T08:11:15;4.90;;;1.05;;
47335;SDS011;33068;51.990;5.926;2023-08-20T08:13:42;6.13;;;1.13;;
47335;SDS011;33068;51.990;5.926;2023-08-20T08:16:08;2.95;;;0.70;;
47335;SDS011;33068;51.990;5.926;2023-08-20T08:18:35;3.85;;;0.80;;
47335;SDS011;33068;51.990;5.926;2023-08-20T08:21:02;5.57;;;1.13;;
47335;SDS011;33068;51.990;5.926;2023-08-20T08:23:28;3.65;;;0.90;;
47335;SDS011;33068;51.990;5.926;2023-08-20T08:25:54;5.90;;;0.90;;
47335;SDS011;33068;51.990;5.926;2023-08-20T08:28:21;5.47;;;0.90;;
47335;SDS011;33068;51.990;5.926;2023-08-20T08:30:47;4.20;;;1.13;;
47335;SDS011;33068;51.990;5.926;2023-08-20T08:33:14;3.17;;;0.70;;
47335;SDS011;33068;51.990;5.926;2023-08-20T08:35:40;5.63;;;0.50;;
47335;SDS011;33068;51.990;5.926;2023-08-20T08:38:07;4.28;;;0.70;;
47335;SDS011;33068;51.990;5.926;2023-08-20T08:40:33;2.97;;;0.60;;
47335;SDS011;33068;51.990;5.926;2023-08-20T08:43:00;3.20;;;0.45;;
47335;SDS011;33068;51.990;5.926;2023-08-20T08:45:28;3.17;;;0.47;;
47335;SDS011;33068;51.990;5.926;2023-08-20T08:47:55;2.58;;;0.40;;
47335;SDS011;33068;51.990;5.926;2023-08-20T08:50:21;5.78;;;1.15;;
47335;SDS011;33068;51.990;5.926;2023-08-20T08:52:48;3.20;;;0.50;;
47335;SDS011;33068;51.990;5.926;2023-08-20T08:55:18;4.38;;;0.70;;
47335;SDS011;33068;51.990;5.926;2023-08-20T08:57:44;2.83;;;0.80;;
47335;SDS011;33068;51.990;5.926;2023-08-20T09:00:11;3.78;;;0.50;;
47335;SDS011;33068;51.990;5.926;2023-08-20T09:02:38;3.63;;;0.57;;
47335;SDS011;33068;51.990;5.926;2023-08-20T09:05:05;3.50;;;0.60;;
47335;SDS011;33068;51.990;5.926;2023-08-20T09:07:32;5.57;;;1.13;;
47335;SDS011;33068;51.990;5.926;2023-08-20T09:09:58;0.98;;;0.40;;
47335;SDS011;33068;51.990;5.926;2023-08-20T09:12:26;1.75;;;0.45;;
47335;SDS011;33068;51.990;5.926;2023-08-20T09:14:52;3.15;;;0.63;;
47335;SDS011;33068;51.990;5.926;2023-08-20T09:17:20;3.47;;;0.50;;
47335;SDS011;33068;51.990;5.926;2023-08-20T09:19:46;1.73;;;0.50;;
47335;SDS011;33068;51.990;5.926;2023-08-20T09:22:13;4.28;;;0.68;;
47335;SDS011;33068;51.990;5.926;2023-08-20T09:24:41;3.95;;;0.70;;
47335;SDS011;33068;51.990;5.926;2023-08-20T09:27:11;4.32;;;0.88;;
47335;SDS011;33068;51.990;5.926;2023-08-20T09:29:45;3.08;;;0.60;;
47335;SDS011;33068;51.990;5.926;2023-08-20T09:34:40;1.95;;;0.40;;
47335;SDS011;33068;51.990;5.926;2023-08-20T09:37:09;4.72;;;0.60;;
47335;SDS011;33068;51.990;5.926;2023-08-20T09:39:36;3.28;;;0.45;;
47335;SDS011;33068;51.990;5.926;2023-08-20T09:42:03;3.28;;;0.60;;
47335;SDS011;33068;51.990;5.926;2023-08-20T09:44:32;2.10;;;0.40;;
47335;SDS011;33068;51.990;5.926;2023-08-20T09:47:01;4.15;;;0.50;;
47335;SDS011;33068;51.990;5.926;2023-08-20T09:49:33;1.15;;;0.35;;
47335;SDS011;33068;51.990;5.926;2023-08-20T09:52:05;3.08;;;0.40;;
47335;SDS011;33068;51.990;5.926;2023-08-20T09:54:40;2.13;;;0.55;;
47335;SDS011;33068;51.990;5.926;2023-08-20T09:57:30;2.00;;;0.65;;
47335;SDS011;33068;51.990;5.926;2023-08-20T09:59:59;2.78;;;0.40;;
47335;SDS011;33068;51.990;5.926;2023-08-20T10:02:27;5.90;;;0.60;;
47335;SDS011;33068;51.990;5.926;2023-08-20T10:04:54;2.40;;;0.40;;
47335;SDS011;33068;51.990;5.926;2023-08-20T10:07:21;1.98;;;0.45;;
47335;SDS011;33068;51.990;5.926;2023-08-20T10:09:51;3.63;;;0.47;;
47335;SDS011;33068;51.990;5.926;2023-08-20T10:12:18;2.28;;;0.40;;
47335;SDS011;33068;51.990;5.926;2023-08-20T10:14:45;1.27;;;0.38;;
47335;SDS011;33068;51.990;5.926;2023-08-20T10:17:11;2.33;;;0.43;;
47335;SDS011;33068;51.990;5.926;2023-08-20T10:19:41;3.63;;;0.40;;
47335;SDS011;33068;51.990;5.926;2023-08-20T10:22:08;1.85;;;0.30;;
47335;SDS011;33068;51.990;5.926;2023-08-20T10:24:41;3.38;;;0.30;;
47335;SDS011;33068;51.990;5.926;2023-08-20T10:27:13;1.30;;;0.20;;
47335;SDS011;33068;51.990;5.926;2023-08-20T10:29:49;1.27;;;0.25;;
47335;SDS011;33068;51.990;5.926;2023-08-20T10:32:15;2.60;;;0.40;;
47335;SDS011;33068;51.990;5.926;2023-08-20T10:34:43;1.77;;;0.30;;
47335;SDS011;33068;51.990;5.926;2023-08-20T10:37:15;1.90;;;0.20;;
47335;SDS011;33068;51.990;5.926;2023-08-20T10:39:53;0.68;;;0.20;;
47335;SDS011;33068;51.990;5.926;2023-08-20T10:42:25;1.73;;;0.20;;
47335;SDS011;33068;51.990;5.926;2023-08-20T10:44:59;2.55;;;0.28;;
47335;SDS011;33068;51.990;5.926;2023-08-20T10:47:26;4.40;;;0.57;;
47335;SDS011;33068;51.990;5.926;2023-08-20T10:50:02;2.85;;;0.30;;
47335;SDS011;33068;51.990;5.926;2023-08-20T10:52:28;2.58;;;0.35;;
47335;SDS011;33068;51.990;5.926;2023-08-20T10:54:55;1.88;;;0.20;;
47335;SDS011;33068;51.990;5.926;2023-08-20T10:57:22;2.03;;;0.20;;
47335;SDS011;33068;51.990;5.926;2023-08-20T10:59:57;2.20;;;0.70;;
47335;SDS011;33068;51.990;5.926;2023-08-20T11:02:24;5.53;;;0.50;;
47335;SDS011;33068;51.990;5.926;2023-08-20T11:04:51;1.73;;;0.40;;
47335;SDS011;33068;51.990;5.926;2023-08-20T11:07:19;0.75;;;0.20;;
47335;SDS011;33068;51.990;5.926;2023-08-20T11:09:46;1.67;;;0.28;;
47335;SDS011;33068;51.990;5.926;2023-08-20T11:12:14;1.13;;;0.30;;
47335;SDS011;33068;51.990;5.926;2023-08-20T11:14:40;1.92;;;0.30;;
47335;SDS011;33068;51.990;5.926;2023-08-20T11:17:08;2.83;;;0.30;;
47335;SDS011;33068;51.990;5.926;2023-08-20T11:19:35;0.95;;;0.20;;
47335;SDS011;33068;51.990;5.926;2023-08-20T11:22:01;3.05;;;0.30;;
47335;SDS011;33068;51.990;5.926;2023-08-20T11:24:29;2.80;;;0.30;;
47335;SDS011;33068;51.990;5.926;2023-08-20T11:26:55;3.70;;;0.50;;
47335;SDS011;33068;51.990;5.926;2023-08-20T11:29:22;2.03;;;0.30;;
47335;SDS011;33068;51.990;5.926;2023-08-20T11:31:48;2.92;;;0.35;;
47335;SDS011;33068;51.990;5.926;2023-08-20T11:34:15;0.93;;;0.20;;
47335;SDS011;33068;51.990;5.926;2023-08-20T11:36:43;2.28;;;0.20;;
47335;SDS011;33068;51.990;5.926;2023-08-20T11:39:10;2.15;;;0.30;;
47335;SDS011;33068;51.990;5.926;2023-08-20T11:41:37;2.78;;;0.40;;
47335;SDS011;33068;51.990;5.926;2023-08-20T11:44:07;1.42;;;0.30;;
47335;SDS011;33068;51.990;5.926;2023-08-20T11:46:41;2.90;;;0.32;;
47335;SDS011;33068;51.990;5.926;2023-08-20T11:49:09;0.98;;;0.20;;
47335;SDS011;33068;51.990;5.926;2023-08-20T11:51:37;2.83;;;0.38;;
47335;SDS011;33068;51.990;5.926;2023-08-20T11:54:04;2.60;;;0.20;;
47335;SDS011;33068;51.990;5.926;2023-08-20T11:56:32;1.65;;;0.20;;
47335;SDS011;33068;51.990;5.926;2023-08-20T11:58:59;1.95;;;0.30;;
47335;SDS011;33068;51.990;5.926;2023-08-20T12:01:29;1.52;;;0.30;;
47335;SDS011;33068;51.990;5.926;2023-08-20T12:03:59;0.60;;;0.13;;
47335;SDS011;33068;51.990;5.926;2023-08-20T12:06:26;1.75;;;0.32;;
47335;SDS011;33068;51.990;5.926;2023-08-20T12:08:55;2.13;;;0.73;;
47335;SDS011;33068;51.990;5.926;2023-08-20T12:11:23;1.88;;;0.20;;
47335;SDS011;33068;51.990;5.926;2023-08-20T12:13:50;2.22;;;0.20;;
47335;SDS011;33068;51.990;5.926;2023-08-20T12:16:18;2.00;;;0.30;;
47335;SDS011;33068;51.990;5.926;2023-08-20T12:18:45;2.58;;;0.30;;
47335;SDS011;33068;51.990;5.926;2023-08-20T12:21:11;2.33;;;0.30;;
47335;SDS011;33068;51.990;5.926;2023-08-20T12:23:38;1.45;;;0.20;;
47335;SDS011;33068;51.990;5.926;2023-08-20T12:26:04;1.55;;;0.32;;
47335;SDS011;33068;51.990;5.926;2023-08-20T12:28:30;3.00;;;0.38;;
47335;SDS011;33068;51.990;5.926;2023-08-20T12:30:57;1.42;;;0.32;;
47335;SDS011;33068;51.990;5.926;2023-08-20T12:33:24;1.65;;;0.40;;
47335;SDS011;33068;51.990;5.926;2023-08-20T12:35:53;2.50;;;0.30;;
47335;SDS011;33068;51.990;5.926;2023-08-20T12:38:20;1.85;;;0.30;;
47335;SDS011;33068;51.990;5.926;2023-08-20T12:40:46;2.85;;;0.20;;
47335;SDS011;33068;51.990;5.926;2023-08-20T12:43:13;1.58;;;0.35;;
47335;SDS011;33068;51.990;5.926;2023-08-20T12:45:39;2.83;;;0.38;;
47335;SDS011;33068;51.990;5.926;2023-08-20T12:48:08;4.80;;;0.35;;
47335;SDS011;33068;51.990;5.926;2023-08-20T12:50:35;1.42;;;0.30;;
47335;SDS011;33068;51.990;5.926;2023-08-20T12:53:01;1.13;;;0.22;;
47335;SDS011;33068;51.990;5.926;2023-08-20T12:55:28;0.82;;;0.28;;
47335;SDS011;33068;51.990;5.926;2023-08-20T12:57:55;1.48;;;0.30;;
47335;SDS011;33068;51.990;5.926;2023-08-20T13:00:23;2.45;;;0.30;;
47335;SDS011;33068;51.990;5.926;2023-08-20T13:02:50;1.20;;;0.30;;
47335;SDS011;33068;51.990;5.926;2023-08-20T13:05:17;3.15;;;0.40;;
47335;SDS011;33068;51.990;5.926;2023-08-20T13:07:45;4.10;;;0.73;;
47335;SDS011;33068;51.990;5.926;2023-08-20T13:10:12;1.45;;;0.30;;
47335;SDS011;33068;51.990;5.926;2023-08-20T13:12:41;1.80;;;0.20;;
47335;SDS011;33068;51.990;5.926;2023-08-20T13:15:13;1.83;;;0.30;;
47335;SDS011;33068;51.990;5.926;2023-08-20T13:17:41;1.77;;;0.40;;
47335;SDS011;33068;51.990;5.926;2023-08-20T13:20:08;5.90;;;0.40;;
47335;SDS011;33068;51.990;5.926;2023-08-20T13:22:35;2.72;;;0.45;;
47335;SDS011;33068;51.990;5.926;2023-08-20T13:25:02;3.72;;;0.30;;
47335;SDS011;33068;51.990;5.926;2023-08-20T13:27:29;4.88;;;0.50;;
47335;SDS011;33068;51.990;5.926;2023-08-20T13:29:56;2.22;;;0.40;;
47335;SDS011;33068;51.990;5.926;2023-08-20T13:32:22;3.22;;;0.40;;
47335;SDS011;33068;51.990;5.926;2023-08-20T13:34:49;2.47;;;0.55;;
47335;SDS011;33068;51.990;5.926;2023-08-20T13:37:16;3.22;;;0.45;;
47335;SDS011;33068;51.990;5.926;2023-08-20T13:39:42;1.23;;;0.30;;
47335;SDS011;33068;51.990;5.926;2023-08-20T13:42:09;0.98;;;0.30;;
47335;SDS011;33068;51.990;5.926;2023-08-20T13:44:36;4.63;;;0.98;;
47335;SDS011;33068;51.990;5.926;2023-08-20T13:47:02;1.73;;;0.25;;
47335;SDS011;33068;51.990;5.926;2023-08-20T13:49:29;3.40;;;0.20;;
47335;SDS011;33068;51.990;5.926;2023-08-20T13:51:55;2.30;;;0.38;;
47335;SDS011;33068;51.990;5.926;2023-08-20T13:54:21;1.25;;;0.28;;
47335;SDS011;33068;51.990;5.926;2023-08-20T13:56:48;3.05;;;0.30;;
47335;SDS011;33068;51.990;5.926;2023-08-20T13:59:15;2.97;;;0.40;;
47335;SDS011;33068;51.990;5.926;2023-08-20T14:01:41;2.88;;;0.35;;
47335;SDS011;33068;51.990;5.926;2023-08-20T14:04:08;2.33;;;0.30;;
47335;SDS011;33068;51.990;5.926;2023-08-20T14:06:34;3.85;;;0.50;;
47335;SDS011;33068;51.990;5.926;2023-08-20T14:09:01;0.77;;;0.20;;
47335;SDS011;33068;51.990;5.926;2023-08-20T14:11:30;3.00;;;0.75;;
47335;SDS011;33068;51.990;5.926;2023-08-20T14:13:57;9.63;;;3.35;;
47335;SDS011;33068;51.990;5.926;2023-08-20T14:16:25;4.47;;;1.15;;
47335;SDS011;33068;51.990;5.926;2023-08-20T14:18:52;4.22;;;1.52;;
47335;SDS011;33068;51.990;5.926;2023-08-20T14:21:19;3.00;;;1.35;;
47335;SDS011;33068;51.990;5.926;2023-08-20T14:23:46;2.38;;;0.80;;
47335;SDS011;33068;51.990;5.926;2023-08-20T14:26:12;3.22;;;0.50;;
47335;SDS011;33068;51.990;5.926;2023-08-20T14:28:39;2.72;;;0.70;;
47335;SDS011;33068;51.990;5.926;2023-08-20T14:31:05;1.52;;;0.40;;
47335;SDS011;33068;51.990;5.926;2023-08-20T14:33:32;1.95;;;0.22;;
47335;SDS011;33068;51.990;5.926;2023-08-20T14:35:58;1.70;;;0.40;;
47335;SDS011;33068;51.990;5.926;2023-08-20T14:38:25;1.48;;;0.30;;
47335;SDS011;33068;51.990;5.926;2023-08-20T14:40:53;5.38;;;0.40;;
47335;SDS011;33068;51.990;5.926;2023-08-20T14:43:20;3.47;;;0.40;;
47335;SDS011;33068;51.990;5.926;2023-08-20T14:45:46;3.92;;;0.88;;
47335;SDS011;33068;51.990;5.926;2023-08-20T14:48:12;2.38;;;0.65;;